sensor_id;sensor_type;location;lat;lon;timestamp;P1;durP1;ratioP1;P2;durP2;ratioP2
16826;SDS011;8530;49.540;8.576;2022-12-04T00:02:14;21.53;;;17.80;;
16826;SDS011;8530;49.540;8.576;2022-12-04T00:04:41;20.97;;;15.40;;
16826;SDS011;8530;49.540;8.576;2022-12-04T00:07:08;20.97;;;16.03;;
16826;SDS011;8530;49.540;8.576;2022-12-04T00:09:35;19.70;;;15.70;;
16826;SDS011;8530;49.540;8.576;2022-12-04T00:12:02;20.37;;;17.20;;
16826;SDS011;8530;49.540;8.576;2022-12-04T00:14:31;21.80;;;17.20;;
16826;SDS011;8530;49.540;8.576;2022-12-04T00:16:58;19.80;;;17.20;;
16826;SDS011;8530;49.540;8.576;2022-12-04T00:19:25;23.90;;;17.27;;
16826;SDS011;8530;49.540;8.576;2022-12-04T00:21:52;23.03;;;18.77;;
16826;SDS011;8530;49.540;8.576;2022-12-04T00:24:18;22.70;;;16.90;;
16826;SDS011;8530;49.540;8.576;2022-12-04T00:26:45;20.93;;;17.27;;
16826;SDS011;8530;49.540;8.576;2022-12-04T00:29:12;22.80;;;17.60;;
16826;SDS011;8530;49.540;8.576;2022-12-04T00:31:40;18.87;;;16.30;;
16826;SDS011;8530;49.540;8.576;2022-12-04T00:34:07;20.70;;;16.57;;
16826;SDS011;8530;49.540;8.576;2022-12-04T00:36:34;17.77;;;15.53;;
16826;SDS011;8530;49.540;8.576;2022-12-04T00:39:04;26.13;;;18.83;;
16826;SDS011;8530;49.540;8.576;2022-12-04T00:41:36;21.87;;;16.83;;
16826;SDS011;8530;49.540;8.576;2022-12-04T00:44:03;21.27;;;17.97;;
16826;SDS011;8530;49.540;8.576;2022-12-04T00:46:30;22.43;;;17.70;;
16826;SDS011;8530;49.540;8.576;2022-12-04T00:48:59;20.83;;;15.93;;
16826;SDS011;8530;49.540;8.576;2022-12-04T00:51:27;21.00;;;15.93;;
16826;SDS011;8530;49.540;8.576;2022-12-04T00:53:54;19.20;;;16.40;;
16826;SDS011;8530;49.540;8.576;2022-12-04T00:56:21;20.13;;;15.90;;
16826;SDS011;8530;49.540;8.576;2022-12-04T00:58:50;21.13;;;17.70;;
16826;SDS011;8530;49.540;8.576;2022-12-04T01:01:18;21.00;;;17.77;;
16826;SDS011;8530;49.540;8.576;2022-12-04T01:03:46;20.27;;;17.70;;
16826;SDS011;8530;49.540;8.576;2022-12-04T01:06:20;20.97;;;17.73;;
16826;SDS011;8530;49.540;8.576;2022-12-04T01:08:49;22.43;;;17.23;;
16826;SDS011;8530;49.540;8.576;2022-12-04T01:11:17;28.63;;;19.47;;
16826;SDS011;8530;49.540;8.576;2022-12-04T01:13:45;25.30;;;17.80;;
16826;SDS011;8530;49.540;8.576;2022-12-04T01:16:16;22.63;;;17.57;;
16826;SDS011;8530;49.540;8.576;2022-12-04T01:18:44;21.47;;;16.93;;
16826;SDS011;8530;49.540;8.576;2022-12-04T01:21:11;23.20;;;17.97;;
16826;SDS011;8530;49.540;8.576;2022-12-04T01:23:39;22.30;;;17.40;;
16826;SDS011;8530;49.540;8.576;2022-12-04T01:26:06;22.33;;;18.50;;
16826;SDS011;8530;49.540;8.576;2022-12-04T01:28:33;25.70;;;19.77;;
16826;SDS011;8530;49.540;8.576;2022-12-04T01:31:02;21.70;;;17.37;;
16826;SDS011;8530;49.540;8.576;2022-12-04T01:33:31;21.87;;;16.60;;
16826;SDS011;8530;49.540;8.576;2022-12-04T01:36:00;22.87;;;18.47;;
16826;SDS011;8530;49.540;8.576;2022-12-04T01:38:27;23.43;;;18.87;;
16826;SDS011;8530;49.540;8.576;2022-12-04T01:40:56;28.67;;;20.00;;
16826;SDS011;8530;49.540;8.576;2022-12-04T01:43:25;25.53;;;19.50;;
16826;SDS011;8530;49.540;8.576;2022-12-04T01:45:54;24.53;;;18.83;;
16826;SDS011;8530;49.540;8.576;2022-12-04T01:48:24;26.53;;;19.53;;
16826;SDS011;8530;49.540;8.576;2022-12-04T01:50:58;24.53;;;18.27;;
16826;SDS011;8530;49.540;8.576;2022-12-04T01:53:29;24.80;;;19.50;;
16826;SDS011;8530;49.540;8.576;2022-12-04T01:55:58;25.73;;;18.60;;
16826;SDS011;8530;49.540;8.576;2022-12-04T01:58:26;24.23;;;18.37;;
16826;SDS011;8530;49.540;8.576;2022-12-04T02:00:57;23.37;;;19.73;;
16826;SDS011;8530;49.540;8.576;2022-12-04T02:03:29;23.47;;;18.30;;
16826;SDS011;8530;49.540;8.576;2022-12-04T02:05:56;23.90;;;19.90;;
16826;SDS011;8530;49.540;8.576;2022-12-04T02:08:23;23.53;;;18.97;;
16826;SDS011;8530;49.540;8.576;2022-12-04T02:10:52;26.20;;;19.30;;
16826;SDS011;8530;49.540;8.576;2022-12-04T02:13:30;23.60;;;18.87;;
16826;SDS011;8530;49.540;8.576;2022-12-04T02:16:03;28.13;;;19.93;;
16826;SDS011;8530;49.540;8.576;2022-12-04T02:18:37;23.30;;;16.83;;
16826;SDS011;8530;49.540;8.576;2022-12-04T02:21:12;25.80;;;20.47;;
16826;SDS011;8530;49.540;8.576;2022-12-04T02:26:43;25.47;;;19.03;;
16826;SDS011;8530;49.540;8.576;2022-12-04T02:29:18;29.03;;;20.13;;
16826;SDS011;8530;49.540;8.576;2022-12-04T02:31:57;32.63;;;21.87;;
16826;SDS011;8530;49.540;8.576;2022-12-04T02:34:28;25.53;;;19.90;;
16826;SDS011;8530;49.540;8.576;2022-12-04T02:37:01;24.80;;;18.33;;
16826;SDS011;8530;49.540;8.576;2022-12-04T02:39:34;25.53;;;19.27;;
16826;SDS011;8530;49.540;8.576;2022-12-04T02:42:07;30.33;;;20.93;;
16826;SDS011;8530;49.540;8.576;2022-12-04T02:44:39;24.07;;;19.37;;
16826;SDS011;8530;49.540;8.576;2022-12-04T02:47:10;27.40;;;20.00;;
16826;SDS011;8530;49.540;8.576;2022-12-04T02:49:40;25.77;;;19.70;;
16826;SDS011;8530;49.540;8.576;2022-12-04T02:52:11;25.20;;;19.60;;
16826;SDS011;8530;49.540;8.576;2022-12-04T02:54:42;27.60;;;22.20;;
16826;SDS011;8530;49.540;8.576;2022-12-04T02:57:14;25.60;;;20.73;;
16826;SDS011;8530;49.540;8.576;2022-12-04T02:59:46;26.47;;;19.93;;
16826;SDS011;8530;49.540;8.576;2022-12-04T03:02:18;27.53;;;20.37;;
16826;SDS011;8530;49.540;8.576;2022-12-04T03:04:48;28.70;;;19.80;;
16826;SDS011;8530;49.540;8.576;2022-12-04T03:07:19;24.40;;;18.70;;
16826;SDS011;8530;49.540;8.576;2022-12-04T03:09:51;24.87;;;19.20;;
16826;SDS011;8530;49.540;8.576;2022-12-04T03:12:23;28.87;;;21.57;;
16826;SDS011;8530;49.540;8.576;2022-12-04T03:14:55;27.00;;;21.40;;
16826;SDS011;8530;49.540;8.576;2022-12-04T03:17:26;23.03;;;17.63;;
16826;SDS011;8530;49.540;8.576;2022-12-04T03:20:00;27.97;;;20.63;;
16826;SDS011;8530;49.540;8.576;2022-12-04T03:22:30;25.80;;;18.57;;
16826;SDS011;8530;49.540;8.576;2022-12-04T03:24:58;27.97;;;19.50;;
16826;SDS011;8530;49.540;8.576;2022-12-04T03:27:29;29.00;;;21.07;;
16826;SDS011;8530;49.540;8.576;2022-12-04T03:30:08;28.63;;;19.83;;
16826;SDS011;8530;49.540;8.576;2022-12-04T03:32:39;26.37;;;19.90;;
16826;SDS011;8530;49.540;8.576;2022-12-04T03:35:14;27.20;;;19.30;;
16826;SDS011;8530;49.540;8.576;2022-12-04T03:37:46;26.00;;;20.93;;
16826;SDS011;8530;49.540;8.576;2022-12-04T03:40:20;24.90;;;18.20;;
16826;SDS011;8530;49.540;8.576;2022-12-04T03:42:54;23.13;;;17.73;;
16826;SDS011;8530;49.540;8.576;2022-12-04T03:45:25;25.03;;;17.10;;
16826;SDS011;8530;49.540;8.576;2022-12-04T03:47:57;24.93;;;18.10;;
16826;SDS011;8530;49.540;8.576;2022-12-04T03:50:33;26.47;;;19.17;;
16826;SDS011;8530;49.540;8.576;2022-12-04T03:53:03;23.60;;;18.10;;
16826;SDS011;8530;49.540;8.576;2022-12-04T03:55:34;23.20;;;17.70;;
16826;SDS011;8530;49.540;8.576;2022-12-04T03:58:09;24.20;;;15.47;;
16826;SDS011;8530;49.540;8.576;2022-12-04T04:00:42;25.73;;;17.13;;
16826;SDS011;8530;49.540;8.576;2022-12-04T04:03:12;21.20;;;16.37;;
16826;SDS011;8530;49.540;8.576;2022-12-04T04:05:43;20.83;;;15.97;;
16826;SDS011;8530;49.540;8.576;2022-12-04T04:08:13;23.10;;;16.90;;
16826;SDS011;8530;49.540;8.576;2022-12-04T04:10:58;24.17;;;18.10;;
16826;SDS011;8530;49.540;8.576;2022-12-04T04:13:31;21.80;;;16.63;;
16826;SDS011;8530;49.540;8.576;2022-12-04T04:16:21;18.90;;;15.33;;
16826;SDS011;8530;49.540;8.576;2022-12-04T04:19:10;19.90;;;16.20;;
16826;SDS011;8530;49.540;8.576;2022-12-04T04:21:58;21.03;;;15.90;;
16826;SDS011;8530;49.540;8.576;2022-12-04T04:24:45;23.53;;;16.43;;
16826;SDS011;8530;49.540;8.576;2022-12-04T04:27:15;26.30;;;17.70;;
16826;SDS011;8530;49.540;8.576;2022-12-04T04:29:42;18.50;;;15.23;;
16826;SDS011;8530;49.540;8.576;2022-12-04T04:32:12;18.77;;;14.57;;
16826;SDS011;8530;49.540;8.576;2022-12-04T04:34:47;22.37;;;16.60;;
16826;SDS011;8530;49.540;8.576;2022-12-04T04:37:19;27.13;;;16.43;;
16826;SDS011;8530;49.540;8.576;2022-12-04T04:39:52;20.60;;;15.53;;
16826;SDS011;8530;49.540;8.576;2022-12-04T04:42:26;18.00;;;15.27;;
16826;SDS011;8530;49.540;8.576;2022-12-04T04:44:57;21.43;;;14.00;;
16826;SDS011;8530;49.540;8.576;2022-12-04T04:47:31;19.60;;;15.57;;
16826;SDS011;8530;49.540;8.576;2022-12-04T04:50:03;26.30;;;15.57;;
16826;SDS011;8530;49.540;8.576;2022-12-04T04:52:33;19.90;;;15.00;;
16826;SDS011;8530;49.540;8.576;2022-12-04T04:55:04;22.93;;;15.97;;
16826;SDS011;8530;49.540;8.576;2022-12-04T04:57:33;17.80;;;13.40;;
16826;SDS011;8530;49.540;8.576;2022-12-04T05:00:01;17.87;;;13.23;;
16826;SDS011;8530;49.540;8.576;2022-12-04T05:02:30;17.77;;;13.10;;
16826;SDS011;8530;49.540;8.576;2022-12-04T05:04:58;16.00;;;13.00;;
16826;SDS011;8530;49.540;8.576;2022-12-04T05:07:25;21.50;;;15.10;;
16826;SDS011;8530;49.540;8.576;2022-12-04T05:09:52;16.40;;;13.80;;
16826;SDS011;8530;49.540;8.576;2022-12-04T05:12:18;15.70;;;11.83;;
16826;SDS011;8530;49.540;8.576;2022-12-04T05:14:45;17.43;;;13.13;;
16826;SDS011;8530;49.540;8.576;2022-12-04T05:17:12;16.43;;;12.20;;
16826;SDS011;8530;49.540;8.576;2022-12-04T05:19:41;21.43;;;13.30;;
16826;SDS011;8530;49.540;8.576;2022-12-04T05:22:19;15.23;;;12.27;;
16826;SDS011;8530;49.540;8.576;2022-12-04T05:24:47;18.67;;;13.23;;
16826;SDS011;8530;49.540;8.576;2022-12-04T05:27:14;21.53;;;12.33;;
16826;SDS011;8530;49.540;8.576;2022-12-04T05:29:42;16.63;;;12.30;;
16826;SDS011;8530;49.540;8.576;2022-12-04T05:32:09;21.13;;;14.73;;
16826;SDS011;8530;49.540;8.576;2022-12-04T05:34:36;24.97;;;15.73;;
16826;SDS011;8530;49.540;8.576;2022-12-04T05:37:05;16.40;;;12.73;;
16826;SDS011;8530;49.540;8.576;2022-12-04T05:39:33;29.50;;;18.40;;
16826;SDS011;8530;49.540;8.576;2022-12-04T05:42:00;19.13;;;13.23;;
16826;SDS011;8530;49.540;8.576;2022-12-04T05:44:27;23.47;;;14.80;;
16826;SDS011;8530;49.540;8.576;2022-12-04T05:46:54;33.80;;;19.67;;
16826;SDS011;8530;49.540;8.576;2022-12-04T05:49:20;30.40;;;20.90;;
16826;SDS011;8530;49.540;8.576;2022-12-04T05:51:48;22.70;;;16.70;;
16826;SDS011;8530;49.540;8.576;2022-12-04T05:54:16;23.17;;;15.10;;
16826;SDS011;8530;49.540;8.576;2022-12-04T05:56:43;17.53;;;14.43;;
16826;SDS011;8530;49.540;8.576;2022-12-04T05:59:10;18.23;;;12.07;;
16826;SDS011;8530;49.540;8.576;2022-12-04T06:01:37;17.60;;;12.50;;
16826;SDS011;8530;49.540;8.576;2022-12-04T06:04:04;17.90;;;14.43;;
16826;SDS011;8530;49.540;8.576;2022-12-04T06:06:31;19.10;;;13.10;;
16826;SDS011;8530;49.540;8.576;2022-12-04T06:08:58;17.80;;;14.10;;
16826;SDS011;8530;49.540;8.576;2022-12-04T06:11:27;16.70;;;13.20;;
16826;SDS011;8530;49.540;8.576;2022-12-04T06:13:57;16.93;;;11.93;;
16826;SDS011;8530;49.540;8.576;2022-12-04T06:16:26;12.40;;;11.10;;
16826;SDS011;8530;49.540;8.576;2022-12-04T06:18:55;15.30;;;11.37;;
16826;SDS011;8530;49.540;8.576;2022-12-04T06:21:24;14.97;;;10.90;;
16826;SDS011;8530;49.540;8.576;2022-12-04T06:23:53;15.80;;;12.33;;
16826;SDS011;8530;49.540;8.576;2022-12-04T06:26:20;20.13;;;13.40;;
16826;SDS011;8530;49.540;8.576;2022-12-04T06:28:51;14.90;;;11.50;;
16826;SDS011;8530;49.540;8.576;2022-12-04T06:31:18;16.33;;;12.50;;
16826;SDS011;8530;49.540;8.576;2022-12-04T06:33:45;24.83;;;15.73;;
16826;SDS011;8530;49.540;8.576;2022-12-04T06:36:13;20.80;;;15.57;;
16826;SDS011;8530;49.540;8.576;2022-12-04T06:38:41;20.90;;;14.70;;
16826;SDS011;8530;49.540;8.576;2022-12-04T06:41:09;18.03;;;12.80;;
16826;SDS011;8530;49.540;8.576;2022-12-04T06:43:38;16.53;;;11.97;;
16826;SDS011;8530;49.540;8.576;2022-12-04T06:46:08;16.30;;;11.83;;
16826;SDS011;8530;49.540;8.576;2022-12-04T06:48:36;22.07;;;12.13;;
16826;SDS011;8530;49.540;8.576;2022-12-04T06:51:05;16.37;;;12.20;;
16826;SDS011;8530;49.540;8.576;2022-12-04T06:53:33;15.33;;;13.00;;
16826;SDS011;8530;49.540;8.576;2022-12-04T06:56:00;14.40;;;11.80;;
16826;SDS011;8530;49.540;8.576;2022-12-04T06:58:29;13.90;;;10.70;;
16826;SDS011;8530;49.540;8.576;2022-12-04T07:00:57;13.27;;;10.63;;
16826;SDS011;8530;49.540;8.576;2022-12-04T07:03:25;13.90;;;11.07;;
16826;SDS011;8530;49.540;8.576;2022-12-04T07:05:52;17.80;;;11.93;;
16826;SDS011;8530;49.540;8.576;2022-12-04T07:08:19;14.63;;;11.50;;
16826;SDS011;8530;49.540;8.576;2022-12-04T07:10:46;20.07;;;12.73;;
16826;SDS011;8530;49.540;8.576;2022-12-04T07:13:12;18.33;;;12.63;;
16826;SDS011;8530;49.540;8.576;2022-12-04T07:15:39;15.93;;;12.27;;
16826;SDS011;8530;49.540;8.576;2022-12-04T07:18:06;13.97;;;10.87;;
16826;SDS011;8530;49.540;8.576;2022-12-04T07:20:34;14.07;;;11.23;;
16826;SDS011;8530;49.540;8.576;2022-12-04T07:23:05;12.97;;;11.13;;
16826;SDS011;8530;49.540;8.576;2022-12-04T07:25:32;15.97;;;11.53;;
16826;SDS011;8530;49.540;8.576;2022-12-04T07:27:59;19.17;;;12.47;;
16826;SDS011;8530;49.540;8.576;2022-12-04T07:30:26;14.57;;;11.53;;
16826;SDS011;8530;49.540;8.576;2022-12-04T07:32:53;18.37;;;12.67;;
16826;SDS011;8530;49.540;8.576;2022-12-04T07:35:20;19.00;;;13.30;;
16826;SDS011;8530;49.540;8.576;2022-12-04T07:37:48;18.43;;;12.60;;
16826;SDS011;8530;49.540;8.576;2022-12-04T07:40:15;18.00;;;13.37;;
16826;SDS011;8530;49.540;8.576;2022-12-04T07:42:42;19.93;;;12.53;;
16826;SDS011;8530;49.540;8.576;2022-12-04T07:45:09;14.33;;;11.00;;
16826;SDS011;8530;49.540;8.576;2022-12-04T07:47:36;16.30;;;12.17;;
16826;SDS011;8530;49.540;8.576;2022-12-04T07:50:04;13.67;;;10.60;;
16826;SDS011;8530;49.540;8.576;2022-12-04T07:52:34;18.07;;;12.73;;
16826;SDS011;8530;49.540;8.576;2022-12-04T07:55:03;18.13;;;11.70;;
16826;SDS011;8530;49.540;8.576;2022-12-04T07:57:31;14.30;;;10.50;;
16826;SDS011;8530;49.540;8.576;2022-12-04T07:59:58;12.47;;;10.90;;
16826;SDS011;8530;49.540;8.576;2022-12-04T08:02:25;17.23;;;12.30;;
16826;SDS011;8530;49.540;8.576;2022-12-04T08:04:52;16.87;;;10.40;;
16826;SDS011;8530;49.540;8.576;2022-12-04T08:07:19;15.83;;;12.10;;
16826;SDS011;8530;49.540;8.576;2022-12-04T08:09:45;15.63;;;12.33;;
16826;SDS011;8530;49.540;8.576;2022-12-04T08:12:13;14.00;;;11.23;;
16826;SDS011;8530;49.540;8.576;2022-12-04T08:14:41;16.30;;;11.97;;
16826;SDS011;8530;49.540;8.576;2022-12-04T08:17:07;14.00;;;11.80;;
16826;SDS011;8530;49.540;8.576;2022-12-04T08:19:34;16.10;;;11.77;;
16826;SDS011;8530;49.540;8.576;2022-12-04T08:22:03;14.63;;;11.20;;
16826;SDS011;8530;49.540;8.576;2022-12-04T08:24:30;14.43;;;11.20;;
16826;SDS011;8530;49.540;8.576;2022-12-04T08:26:57;19.10;;;11.63;;
16826;SDS011;8530;49.540;8.576;2022-12-04T08:29:27;19.37;;;13.40;;
16826;SDS011;8530;49.540;8.576;2022-12-04T08:31:55;21.20;;;15.07;;
16826;SDS011;8530;49.540;8.576;2022-12-04T08:34:22;18.87;;;13.97;;
16826;SDS011;8530;49.540;8.576;2022-12-04T08:36:50;22.70;;;15.17;;
16826;SDS011;8530;49.540;8.576;2022-12-04T08:39:17;28.20;;;18.40;;
16826;SDS011;8530;49.540;8.576;2022-12-04T08:41:44;32.90;;;19.00;;
16826;SDS011;8530;49.540;8.576;2022-12-04T08:44:11;29.63;;;16.90;;
16826;SDS011;8530;49.540;8.576;2022-12-04T08:46:39;32.13;;;18.30;;
16826;SDS011;8530;49.540;8.576;2022-12-04T08:49:06;22.37;;;15.80;;
16826;SDS011;8530;49.540;8.576;2022-12-04T08:51:32;19.03;;;13.67;;
16826;SDS011;8530;49.540;8.576;2022-12-04T08:54:00;20.60;;;14.70;;
16826;SDS011;8530;49.540;8.576;2022-12-04T08:56:29;18.40;;;15.10;;
16826;SDS011;8530;49.540;8.576;2022-12-04T08:58:56;30.40;;;18.73;;
16826;SDS011;8530;49.540;8.576;2022-12-04T09:01:24;14.83;;;11.40;;
16826;SDS011;8530;49.540;8.576;2022-12-04T09:03:53;20.17;;;15.97;;
16826;SDS011;8530;49.540;8.576;2022-12-04T09:06:20;26.70;;;19.30;;
16826;SDS011;8530;49.540;8.576;2022-12-04T09:08:50;24.47;;;18.20;;
16826;SDS011;8530;49.540;8.576;2022-12-04T09:11:18;17.80;;;13.13;;
16826;SDS011;8530;49.540;8.576;2022-12-04T09:13:47;39.07;;;26.27;;
16826;SDS011;8530;49.540;8.576;2022-12-04T09:16:15;21.03;;;15.57;;
16826;SDS011;8530;49.540;8.576;2022-12-04T09:18:43;22.10;;;17.30;;
16826;SDS011;8530;49.540;8.576;2022-12-04T09:21:12;16.20;;;12.90;;
16826;SDS011;8530;49.540;8.576;2022-12-04T09:23:41;16.13;;;11.50;;
16826;SDS011;8530;49.540;8.576;2022-12-04T09:26:18;14.33;;;11.80;;
16826;SDS011;8530;49.540;8.576;2022-12-04T09:28:46;15.30;;;11.03;;
16826;SDS011;8530;49.540;8.576;2022-12-04T09:31:13;15.17;;;12.23;;
16826;SDS011;8530;49.540;8.576;2022-12-04T09:33:40;12.60;;;10.10;;
16826;SDS011;8530;49.540;8.576;2022-12-04T09:36:13;15.83;;;12.90;;
16826;SDS011;8530;49.540;8.576;2022-12-04T09:38:41;15.90;;;12.47;;
16826;SDS011;8530;49.540;8.576;2022-12-04T09:41:14;19.60;;;13.50;;
16826;SDS011;8530;49.540;8.576;2022-12-04T09:43:50;20.13;;;11.57;;
16826;SDS011;8530;49.540;8.576;2022-12-04T09:46:25;14.27;;;11.07;;
16826;SDS011;8530;49.540;8.576;2022-12-04T09:48:56;15.57;;;10.40;;
16826;SDS011;8530;49.540;8.576;2022-12-04T09:51:29;12.30;;;9.87;;
16826;SDS011;8530;49.540;8.576;2022-12-04T09:54:04;13.47;;;11.27;;
16826;SDS011;8530;49.540;8.576;2022-12-04T09:56:40;14.27;;;11.43;;
16826;SDS011;8530;49.540;8.576;2022-12-04T09:59:12;15.97;;;11.37;;
16826;SDS011;8530;49.540;8.576;2022-12-04T10:01:43;16.33;;;13.10;;
16826;SDS011;8530;49.540;8.576;2022-12-04T10:04:15;18.30;;;11.80;;
16826;SDS011;8530;49.540;8.576;2022-12-04T10:06:45;14.90;;;10.83;;
16826;SDS011;8530;49.540;8.576;2022-12-04T10:09:16;14.50;;;11.37;;
16826;SDS011;8530;49.540;8.576;2022-12-04T10:11:49;14.67;;;10.83;;
16826;SDS011;8530;49.540;8.576;2022-12-04T10:14:23;11.27;;;9.43;;
16826;SDS011;8530;49.540;8.576;2022-12-04T10:17:12;13.90;;;10.10;;
16826;SDS011;8530;49.540;8.576;2022-12-04T10:20:03;11.23;;;9.43;;
16826;SDS011;8530;49.540;8.576;2022-12-04T10:22:46;13.33;;;10.47;;
16826;SDS011;8530;49.540;8.576;2022-12-04T10:25:19;15.67;;;10.57;;
16826;SDS011;8530;49.540;8.576;2022-12-04T10:27:47;15.13;;;11.20;;
16826;SDS011;8530;49.540;8.576;2022-12-04T10:30:20;15.53;;;10.27;;
16826;SDS011;8530;49.540;8.576;2022-12-04T10:32:55;13.90;;;11.77;;
16826;SDS011;8530;49.540;8.576;2022-12-04T10:35:26;16.43;;;12.10;;
16826;SDS011;8530;49.540;8.576;2022-12-04T10:37:57;19.23;;;11.50;;
16826;SDS011;8530;49.540;8.576;2022-12-04T10:40:28;14.47;;;11.63;;
16826;SDS011;8530;49.540;8.576;2022-12-04T10:43:02;17.03;;;12.53;;
16826;SDS011;8530;49.540;8.576;2022-12-04T10:45:36;14.10;;;11.90;;
16826;SDS011;8530;49.540;8.576;2022-12-04T10:48:03;17.60;;;12.77;;
16826;SDS011;8530;49.540;8.576;2022-12-04T10:50:32;18.37;;;12.83;;
16826;SDS011;8530;49.540;8.576;2022-12-04T10:53:01;16.10;;;11.27;;
16826;SDS011;8530;49.540;8.576;2022-12-04T10:55:28;17.77;;;12.57;;
16826;SDS011;8530;49.540;8.576;2022-12-04T10:57:56;21.17;;;13.90;;
16826;SDS011;8530;49.540;8.576;2022-12-04T11:00:24;16.80;;;13.63;;
16826;SDS011;8530;49.540;8.576;2022-12-04T11:02:55;22.07;;;14.30;;
16826;SDS011;8530;49.540;8.576;2022-12-04T11:05:25;18.57;;;12.90;;
16826;SDS011;8530;49.540;8.576;2022-12-04T11:07:54;18.43;;;12.87;;
16826;SDS011;8530;49.540;8.576;2022-12-04T11:10:24;21.73;;;14.00;;
16826;SDS011;8530;49.540;8.576;2022-12-04T11:12:57;26.47;;;17.80;;
16826;SDS011;8530;49.540;8.576;2022-12-04T11:15:26;22.87;;;15.03;;
16826;SDS011;8530;49.540;8.576;2022-12-04T11:18:05;20.80;;;13.57;;
16826;SDS011;8530;49.540;8.576;2022-12-04T11:20:32;19.13;;;13.10;;
16826;SDS011;8530;49.540;8.576;2022-12-04T11:22:59;18.77;;;13.50;;
16826;SDS011;8530;49.540;8.576;2022-12-04T11:25:32;21.57;;;15.80;;
16826;SDS011;8530;49.540;8.576;2022-12-04T11:28:02;22.93;;;13.87;;
16826;SDS011;8530;49.540;8.576;2022-12-04T11:30:31;18.30;;;13.60;;
16826;SDS011;8530;49.540;8.576;2022-12-04T11:32:59;18.70;;;13.40;;
16826;SDS011;8530;49.540;8.576;2022-12-04T11:35:28;21.13;;;13.97;;
16826;SDS011;8530;49.540;8.576;2022-12-04T11:37:57;22.53;;;13.87;;
16826;SDS011;8530;49.540;8.576;2022-12-04T11:40:29;20.93;;;15.03;;
16826;SDS011;8530;49.540;8.576;2022-12-04T11:42:57;23.43;;;14.40;;
16826;SDS011;8530;49.540;8.576;2022-12-04T11:45:27;21.83;;;14.60;;
16826;SDS011;8530;49.540;8.576;2022-12-04T11:47:54;18.87;;;14.73;;
16826;SDS011;8530;49.540;8.576;2022-12-04T11:50:26;24.10;;;17.30;;
16826;SDS011;8530;49.540;8.576;2022-12-04T11:53:01;23.10;;;15.40;;
16826;SDS011;8530;49.540;8.576;2022-12-04T11:55:41;25.40;;;17.17;;
16826;SDS011;8530;49.540;8.576;2022-12-04T11:58:22;22.03;;;15.67;;
16826;SDS011;8530;49.540;8.576;2022-12-04T12:01:12;21.87;;;15.30;;
16826;SDS011;8530;49.540;8.576;2022-12-04T12:03:50;22.50;;;15.07;;
16826;SDS011;8530;49.540;8.576;2022-12-04T12:06:33;25.77;;;16.87;;
16826;SDS011;8530;49.540;8.576;2022-12-04T12:09:07;26.83;;;17.30;;
16826;SDS011;8530;49.540;8.576;2022-12-04T12:11:47;22.87;;;16.00;;
16826;SDS011;8530;49.540;8.576;2022-12-04T12:14:23;23.20;;;15.67;;
16826;SDS011;8530;49.540;8.576;2022-12-04T12:17:03;29.53;;;16.37;;
16826;SDS011;8530;49.540;8.576;2022-12-04T12:22:40;26.03;;;16.50;;
16826;SDS011;8530;49.540;8.576;2022-12-04T12:25:31;24.27;;;14.90;;
16826;SDS011;8530;49.540;8.576;2022-12-04T12:28:14;21.60;;;15.73;;
16826;SDS011;8530;49.540;8.576;2022-12-04T12:30:58;24.00;;;15.07;;
16826;SDS011;8530;49.540;8.576;2022-12-04T12:33:37;27.87;;;17.17;;
16826;SDS011;8530;49.540;8.576;2022-12-04T12:36:08;40.43;;;19.10;;
16826;SDS011;8530;49.540;8.576;2022-12-04T12:38:38;26.20;;;17.37;;
16826;SDS011;8530;49.540;8.576;2022-12-04T12:41:10;34.47;;;17.80;;
16826;SDS011;8530;49.540;8.576;2022-12-04T12:43:42;20.93;;;15.30;;
16826;SDS011;8530;49.540;8.576;2022-12-04T12:46:14;25.63;;;16.27;;
16826;SDS011;8530;49.540;8.576;2022-12-04T12:48:48;27.20;;;17.20;;
16826;SDS011;8530;49.540;8.576;2022-12-04T12:51:23;26.63;;;15.63;;
16826;SDS011;8530;49.540;8.576;2022-12-04T12:53:57;22.40;;;15.20;;
16826;SDS011;8530;49.540;8.576;2022-12-04T12:56:30;25.70;;;15.27;;
16826;SDS011;8530;49.540;8.576;2022-12-04T12:59:04;24.23;;;15.20;;
16826;SDS011;8530;49.540;8.576;2022-12-04T13:01:38;23.10;;;16.00;;
16826;SDS011;8530;49.540;8.576;2022-12-04T13:04:11;25.00;;;16.80;;
16826;SDS011;8530;49.540;8.576;2022-12-04T13:06:46;31.37;;;16.67;;
16826;SDS011;8530;49.540;8.576;2022-12-04T13:09:19;29.53;;;17.33;;
16826;SDS011;8530;49.540;8.576;2022-12-04T13:11:49;26.63;;;16.73;;
16826;SDS011;8530;49.540;8.576;2022-12-04T13:14:24;29.37;;;16.43;;
16826;SDS011;8530;49.540;8.576;2022-12-04T13:16:52;25.20;;;17.10;;
16826;SDS011;8530;49.540;8.576;2022-12-04T13:19:23;28.43;;;16.37;;
16826;SDS011;8530;49.540;8.576;2022-12-04T13:21:55;33.10;;;18.57;;
16826;SDS011;8530;49.540;8.576;2022-12-04T13:24:37;25.83;;;17.30;;
16826;SDS011;8530;49.540;8.576;2022-12-04T13:27:13;25.27;;;17.83;;
16826;SDS011;8530;49.540;8.576;2022-12-04T13:29:53;37.07;;;17.53;;
16826;SDS011;8530;49.540;8.576;2022-12-04T13:32:31;32.80;;;18.93;;
16826;SDS011;8530;49.540;8.576;2022-12-04T13:35:14;28.83;;;18.33;;
16826;SDS011;8530;49.540;8.576;2022-12-04T13:37:54;31.57;;;18.07;;
16826;SDS011;8530;49.540;8.576;2022-12-04T13:40:40;32.20;;;18.87;;
16826;SDS011;8530;49.540;8.576;2022-12-04T13:43:19;30.27;;;17.87;;
16826;SDS011;8530;49.540;8.576;2022-12-04T13:45:52;29.77;;;18.77;;
16826;SDS011;8530;49.540;8.576;2022-12-04T13:48:28;29.50;;;18.00;;
16826;SDS011;8530;49.540;8.576;2022-12-04T13:54:01;29.73;;;19.17;;
16826;SDS011;8530;49.540;8.576;2022-12-04T13:56:46;28.37;;;16.27;;
16826;SDS011;8530;49.540;8.576;2022-12-04T13:59:21;32.03;;;19.70;;
16826;SDS011;8530;49.540;8.576;2022-12-04T14:04:53;29.80;;;18.90;;
16826;SDS011;8530;49.540;8.576;2022-12-04T14:07:33;42.17;;;19.37;;
16826;SDS011;8530;49.540;8.576;2022-12-04T14:10:03;30.17;;;18.53;;
16826;SDS011;8530;49.540;8.576;2022-12-04T14:12:32;35.80;;;18.60;;
16826;SDS011;8530;49.540;8.576;2022-12-04T14:15:03;28.13;;;18.07;;
16826;SDS011;8530;49.540;8.576;2022-12-04T14:17:34;27.40;;;18.10;;
16826;SDS011;8530;49.540;8.576;2022-12-04T14:20:04;27.23;;;16.90;;
16826;SDS011;8530;49.540;8.576;2022-12-04T14:22:41;24.90;;;17.57;;
16826;SDS011;8530;49.540;8.576;2022-12-04T14:27:59;31.00;;;19.57;;
16826;SDS011;8530;49.540;8.576;2022-12-04T14:30:39;32.83;;;20.20;;
16826;SDS011;8530;49.540;8.576;2022-12-04T14:33:08;30.23;;;19.63;;
16826;SDS011;8530;49.540;8.576;2022-12-04T14:35:42;32.17;;;18.87;;
16826;SDS011;8530;49.540;8.576;2022-12-04T14:38:15;33.90;;;20.43;;
16826;SDS011;8530;49.540;8.576;2022-12-04T14:40:46;31.87;;;18.50;;
16826;SDS011;8530;49.540;8.576;2022-12-04T14:43:15;32.73;;;21.40;;
16826;SDS011;8530;49.540;8.576;2022-12-04T14:45:45;36.60;;;21.57;;
16826;SDS011;8530;49.540;8.576;2022-12-04T14:48:22;33.90;;;20.70;;
16826;SDS011;8530;49.540;8.576;2022-12-04T14:50:59;32.43;;;20.20;;
16826;SDS011;8530;49.540;8.576;2022-12-04T14:53:34;45.07;;;26.30;;
16826;SDS011;8530;49.540;8.576;2022-12-04T14:56:13;43.40;;;25.37;;
16826;SDS011;8530;49.540;8.576;2022-12-04T14:58:48;43.03;;;22.50;;
16826;SDS011;8530;49.540;8.576;2022-12-04T15:01:19;48.77;;;23.77;;
16826;SDS011;8530;49.540;8.576;2022-12-04T15:03:50;37.57;;;20.20;;
16826;SDS011;8530;49.540;8.576;2022-12-04T15:06:20;35.20;;;20.73;;
16826;SDS011;8530;49.540;8.576;2022-12-04T15:08:54;34.60;;;21.03;;
16826;SDS011;8530;49.540;8.576;2022-12-04T15:11:44;42.20;;;21.47;;
16826;SDS011;8530;49.540;8.576;2022-12-04T15:14:37;39.13;;;21.97;;